sensor_id;sensor_type;location;lat;lon;timestamp;P1;durP1;ratioP1;P2;durP2;ratioP2
75356;SDS011;63946;51.986;5.930;2022-10-13T05:41:47;13.25;;;7.40;;
75356;SDS011;63946;51.986;5.930;2022-10-13T05:44:25;11.73;;;7.30;;
75356;SDS011;63946;51.986;5.930;2022-10-13T05:46:54;11.02;;;6.82;;
75356;SDS011;63946;51.986;5.930;2022-10-13T05:49:25;9.35;;;6.15;;
75356;SDS011;63946;51.986;5.930;2022-10-13T05:51:54;14.85;;;7.35;;
75356;SDS011;63946;51.986;5.930;2022-10-13T05:54:35;15.05;;;8.23;;
75356;SDS011;63946;51.986;5.930;2022-10-13T05:57:10;12.20;;;6.85;;
75356;SDS011;63946;51.986;5.930;2022-10-13T05:59:46;14.05;;;7.32;;
75356;SDS011;63946;51.986;5.930;2022-10-13T06:02:20;16.83;;;7.97;;
75356;SDS011;63946;51.986;5.930;2022-10-13T06:04:52;14.40;;;7.60;;
75356;SDS011;63946;51.986;5.930;2022-10-13T06:07:24;11.68;;;6.78;;
75356;SDS011;63946;51.986;5.930;2022-10-13T06:09:53;11.60;;;7.05;;
75356;SDS011;63946;51.986;5.930;2022-10-13T06:12:21;11.65;;;6.60;;
75356;SDS011;63946;51.986;5.930;2022-10-13T06:14:50;13.68;;;6.75;;
75356;SDS011;63946;51.986;5.930;2022-10-13T06:17:20;12.27;;;6.30;;
75356;SDS011;63946;51.986;5.930;2022-10-13T06:19:48;13.68;;;7.43;;
75356;SDS011;63946;51.986;5.930;2022-10-13T06:22:17;13.95;;;7.63;;
75356;SDS011;63946;51.986;5.930;2022-10-13T06:24:46;14.07;;;7.50;;
75356;SDS011;63946;51.986;5.930;2022-10-13T06:27:15;15.98;;;8.90;;
75356;SDS011;63946;51.986;5.930;2022-10-13T06:29:48;11.48;;;7.18;;
75356;SDS011;63946;51.986;5.930;2022-10-13T06:32:17;14.68;;;7.25;;
75356;SDS011;63946;51.986;5.930;2022-10-13T06:34:46;13.40;;;7.70;;
75356;SDS011;63946;51.986;5.930;2022-10-13T06:37:15;17.13;;;7.75;;
75356;SDS011;63946;51.986;5.930;2022-10-13T06:39:44;12.13;;;7.35;;
75356;SDS011;63946;51.986;5.930;2022-10-13T06:42:13;12.93;;;6.85;;
75356;SDS011;63946;51.986;5.930;2022-10-13T06:44:43;12.93;;;6.30;;
75356;SDS011;63946;51.986;5.930;2022-10-13T06:47:12;12.93;;;7.47;;
75356;SDS011;63946;51.986;5.930;2022-10-13T06:49:42;12.10;;;6.82;;
75356;SDS011;63946;51.986;5.930;2022-10-13T06:52:12;12.45;;;7.35;;
75356;SDS011;63946;51.986;5.930;2022-10-13T06:54:41;16.67;;;8.48;;
75356;SDS011;63946;51.986;5.930;2022-10-13T06:57:13;11.20;;;7.88;;
75356;SDS011;63946;51.986;5.930;2022-10-13T06:59:42;14.68;;;8.05;;
75356;SDS011;63946;51.986;5.930;2022-10-13T07:02:11;11.10;;;6.45;;
75356;SDS011;63946;51.986;5.930;2022-10-13T07:04:40;10.85;;;6.50;;
75356;SDS011;63946;51.986;5.930;2022-10-13T07:07:11;10.05;;;6.55;;
75356;SDS011;63946;51.986;5.930;2022-10-13T07:09:41;10.38;;;6.38;;
75356;SDS011;63946;51.986;5.930;2022-10-13T07:12:09;15.93;;;8.23;;
75356;SDS011;63946;51.986;5.930;2022-10-13T07:14:41;16.52;;;10.15;;
75356;SDS011;63946;51.986;5.930;2022-10-13T07:17:09;15.82;;;8.05;;
75356;SDS011;63946;51.986;5.930;2022-10-13T07:19:41;13.80;;;7.95;;
75356;SDS011;63946;51.986;5.930;2022-10-13T07:22:13;14.85;;;9.00;;
75356;SDS011;63946;51.986;5.930;2022-10-13T07:24:43;17.45;;;8.70;;
75356;SDS011;63946;51.986;5.930;2022-10-13T07:27:12;13.38;;;8.18;;
75356;SDS011;63946;51.986;5.930;2022-10-13T07:29:41;20.25;;;8.73;;
75356;SDS011;63946;51.986;5.930;2022-10-13T07:32:10;14.38;;;8.02;;
75356;SDS011;63946;51.986;5.930;2022-10-13T07:34:39;13.88;;;7.30;;
75356;SDS011;63946;51.986;5.930;2022-10-13T07:37:10;15.52;;;8.20;;
75356;SDS011;63946;51.986;5.930;2022-10-13T07:39:38;14.27;;;7.60;;
75356;SDS011;63946;51.986;5.930;2022-10-13T07:42:07;12.93;;;7.18;;
75356;SDS011;63946;51.986;5.930;2022-10-13T07:44:36;16.88;;;9.25;;
75356;SDS011;63946;51.986;5.930;2022-10-13T07:47:05;16.17;;;8.30;;
75356;SDS011;63946;51.986;5.930;2022-10-13T07:49:41;19.25;;;10.27;;
75356;SDS011;63946;51.986;5.930;2022-10-13T07:52:12;14.93;;;8.68;;
75356;SDS011;63946;51.986;5.930;2022-10-13T07:54:41;16.15;;;8.45;;
75356;SDS011;63946;51.986;5.930;2022-10-13T07:57:10;15.75;;;8.88;;
75356;SDS011;63946;51.986;5.930;2022-10-13T07:59:39;13.80;;;8.38;;
75356;SDS011;63946;51.986;5.930;2022-10-13T08:02:12;15.93;;;9.55;;
75356;SDS011;63946;51.986;5.930;2022-10-13T08:04:41;17.33;;;9.23;;
75356;SDS011;63946;51.986;5.930;2022-10-13T08:07:13;13.80;;;7.18;;
75356;SDS011;63946;51.986;5.930;2022-10-13T08:09:44;17.38;;;9.40;;
75356;SDS011;63946;51.986;5.930;2022-10-13T08:12:16;16.73;;;8.95;;
75356;SDS011;63946;51.986;5.930;2022-10-13T08:14:44;17.15;;;9.27;;
75356;SDS011;63946;51.986;5.930;2022-10-13T08:17:14;12.93;;;9.07;;
75356;SDS011;63946;51.986;5.930;2022-10-13T08:19:43;16.02;;;8.82;;
75356;SDS011;63946;51.986;5.930;2022-10-13T08:22:12;13.02;;;7.60;;
75356;SDS011;63946;51.986;5.930;2022-10-13T08:24:41;13.80;;;9.13;;
75356;SDS011;63946;51.986;5.930;2022-10-13T08:27:10;17.23;;;9.15;;
75356;SDS011;63946;51.986;5.930;2022-10-13T08:29:43;16.23;;;8.88;;
75356;SDS011;63946;51.986;5.930;2022-10-13T08:32:12;22.73;;;9.48;;
75356;SDS011;63946;51.986;5.930;2022-10-13T08:34:45;21.55;;;9.75;;
75356;SDS011;63946;51.986;5.930;2022-10-13T08:37:23;18.52;;;9.88;;
75356;SDS011;63946;51.986;5.930;2022-10-13T08:39:56;12.60;;;7.43;;
75356;SDS011;63946;51.986;5.930;2022-10-13T08:42:28;16.67;;;9.68;;
75356;SDS011;63946;51.986;5.930;2022-10-13T08:45:00;19.52;;;10.60;;
75356;SDS011;63946;51.986;5.930;2022-10-13T08:50:19;20.88;;;11.18;;
75356;SDS011;63946;51.986;5.930;2022-10-13T08:55:27;21.45;;;11.68;;
75356;SDS011;63946;51.986;5.930;2022-10-13T08:58:00;16.60;;;9.63;;
75356;SDS011;63946;51.986;5.930;2022-10-13T09:00:35;15.90;;;9.45;;
75356;SDS011;63946;51.986;5.930;2022-10-13T09:03:24;17.52;;;10.63;;
75356;SDS011;63946;51.986;5.930;2022-10-13T09:06:04;19.33;;;9.93;;
75356;SDS011;63946;51.986;5.930;2022-10-13T09:08:44;16.33;;;9.80;;
75356;SDS011;63946;51.986;5.930;2022-10-13T09:11:19;17.10;;;9.82;;
75356;SDS011;63946;51.986;5.930;2022-10-13T09:13:52;15.15;;;9.50;;
75356;SDS011;63946;51.986;5.930;2022-10-13T09:16:29;14.95;;;9.68;;
75356;SDS011;63946;51.986;5.930;2022-10-13T09:19:12;15.15;;;8.35;;
75356;SDS011;63946;51.986;5.930;2022-10-13T09:21:47;16.88;;;9.60;;
75356;SDS011;63946;51.986;5.930;2022-10-13T09:24:21;18.73;;;10.73;;
75356;SDS011;63946;51.986;5.930;2022-10-13T09:27:02;19.33;;;10.65;;
75356;SDS011;63946;51.986;5.930;2022-10-13T09:29:38;19.67;;;10.85;;
75356;SDS011;63946;51.986;5.930;2022-10-13T09:32:13;19.85;;;10.52;;
75356;SDS011;63946;51.986;5.930;2022-10-13T09:34:48;19.80;;;11.02;;
75356;SDS011;63946;51.986;5.930;2022-10-13T09:37:25;15.00;;;8.25;;
75356;SDS011;63946;51.986;5.930;2022-10-13T09:40:01;19.38;;;10.75;;
75356;SDS011;63946;51.986;5.930;2022-10-13T09:42:43;23.02;;;10.35;;
75356;SDS011;63946;51.986;5.930;2022-10-13T09:45:19;13.30;;;8.20;;
75356;SDS011;63946;51.986;5.930;2022-10-13T09:47:52;14.60;;;9.02;;
75356;SDS011;63946;51.986;5.930;2022-10-13T09:50:25;15.90;;;9.75;;
75356;SDS011;63946;51.986;5.930;2022-10-13T09:56:16;12.80;;;8.52;;
75356;SDS011;63946;51.986;5.930;2022-10-13T09:58:54;13.75;;;7.35;;
75356;SDS011;63946;51.986;5.930;2022-10-13T10:01:36;19.45;;;9.50;;
75356;SDS011;63946;51.986;5.930;2022-10-13T10:04:15;16.13;;;10.65;;
75356;SDS011;63946;51.986;5.930;2022-10-13T10:06:52;18.55;;;10.48;;
75356;SDS011;63946;51.986;5.930;2022-10-13T10:09:33;21.30;;;8.63;;
75356;SDS011;63946;51.986;5.930;2022-10-13T10:12:10;16.70;;;8.73;;
75356;SDS011;63946;51.986;5.930;2022-10-13T10:14:47;15.02;;;9.45;;
75356;SDS011;63946;51.986;5.930;2022-10-13T10:23:01;15.02;;;8.63;;
75356;SDS011;63946;51.986;5.930;2022-10-13T10:30:56;15.05;;;9.80;;
75356;SDS011;63946;51.986;5.930;2022-10-13T10:34:47;15.48;;;8.00;;
75356;SDS011;63946;51.986;5.930;2022-10-13T10:37:05;17.63;;;9.15;;
75356;SDS011;63946;51.986;5.930;2022-10-13T10:39:46;19.00;;;9.55;;
75356;SDS011;63946;51.986;5.930;2022-10-13T10:42:19;15.35;;;8.40;;
75356;SDS011;63946;51.986;5.930;2022-10-13T10:45:17;13.95;;;8.68;;
75356;SDS011;63946;51.986;5.930;2022-10-13T10:48:06;14.93;;;8.77;;
75356;SDS011;63946;51.986;5.930;2022-10-13T10:50:43;14.88;;;8.48;;
75356;SDS011;63946;51.986;5.930;2022-10-13T10:53:15;15.63;;;8.73;;
75356;SDS011;63946;51.986;5.930;2022-10-13T10:56:03;18.85;;;9.45;;
75356;SDS011;63946;51.986;5.930;2022-10-13T11:02:08;13.85;;;8.20;;
75356;SDS011;63946;51.986;5.930;2022-10-13T11:04:45;18.25;;;9.20;;
75356;SDS011;63946;51.986;5.930;2022-10-13T11:12:22;14.35;;;8.48;;
75356;SDS011;63946;51.986;5.930;2022-10-13T11:15:10;18.52;;;9.35;;
75356;SDS011;63946;51.986;5.930;2022-10-13T11:17:44;17.05;;;8.52;;
75356;SDS011;63946;51.986;5.930;2022-10-13T11:23:29;17.27;;;8.48;;
75356;SDS011;63946;51.986;5.930;2022-10-13T11:29:15;14.07;;;9.30;;
75356;SDS011;63946;51.986;5.930;2022-10-13T11:31:50;18.30;;;10.27;;
75356;SDS011;63946;51.986;5.930;2022-10-13T11:34:29;19.45;;;10.88;;
75356;SDS011;63946;51.986;5.930;2022-10-13T11:37:10;14.70;;;8.93;;
75356;SDS011;63946;51.986;5.930;2022-10-13T11:39:54;14.63;;;9.23;;
75356;SDS011;63946;51.986;5.930;2022-10-13T11:42:36;15.30;;;9.00;;
75356;SDS011;63946;51.986;5.930;2022-10-13T11:45:31;19.08;;;11.55;;
75356;SDS011;63946;51.986;5.930;2022-10-13T11:54:56;17.33;;;11.93;;
75356;SDS011;63946;51.986;5.930;2022-10-13T11:57:39;15.60;;;9.95;;
75356;SDS011;63946;51.986;5.930;2022-10-13T12:00:19;15.93;;;9.55;;
75356;SDS011;63946;51.986;5.930;2022-10-13T12:02:49;17.35;;;11.27;;
75356;SDS011;63946;51.986;5.930;2022-10-13T12:05:27;26.23;;;13.32;;
75356;SDS011;63946;51.986;5.930;2022-10-13T12:08:02;16.35;;;9.85;;
75356;SDS011;63946;51.986;5.930;2022-10-13T12:10:34;19.15;;;11.25;;
75356;SDS011;63946;51.986;5.930;2022-10-13T12:13:15;15.32;;;9.60;;
75356;SDS011;63946;51.986;5.930;2022-10-13T12:15:54;17.83;;;11.13;;
75356;SDS011;63946;51.986;5.930;2022-10-13T12:18:32;22.17;;;10.43;;
75356;SDS011;63946;51.986;5.930;2022-10-13T12:21:14;15.02;;;9.50;;
75356;SDS011;63946;51.986;5.930;2022-10-13T12:26:20;17.42;;;10.18;;
75356;SDS011;63946;51.986;5.930;2022-10-13T12:28:52;17.80;;;10.23;;
75356;SDS011;63946;51.986;5.930;2022-10-13T12:31:41;19.25;;;10.68;;
75356;SDS011;63946;51.986;5.930;2022-10-13T12:34:20;13.35;;;9.20;;
75356;SDS011;63946;51.986;5.930;2022-10-13T12:36:59;17.23;;;10.15;;
75356;SDS011;63946;51.986;5.930;2022-10-13T12:39:32;22.65;;;10.43;;
75356;SDS011;63946;51.986;5.930;2022-10-13T12:42:08;17.13;;;9.27;;
75356;SDS011;63946;51.986;5.930;2022-10-13T12:44:40;16.52;;;9.90;;
75356;SDS011;63946;51.986;5.930;2022-10-13T12:50:50;16.42;;;9.95;;
75356;SDS011;63946;51.986;5.930;2022-10-13T12:53:09;17.13;;;11.25;;
75356;SDS011;63946;51.986;5.930;2022-10-13T12:55:45;16.23;;;9.15;;
75356;SDS011;63946;51.986;5.930;2022-10-13T12:58:30;13.90;;;9.57;;
75356;SDS011;63946;51.986;5.930;2022-10-13T13:03:58;15.73;;;9.30;;
75356;SDS011;63946;51.986;5.930;2022-10-13T13:06:55;18.83;;;8.98;;
75356;SDS011;63946;51.986;5.930;2022-10-13T13:09:32;14.50;;;8.90;;
75356;SDS011;63946;51.986;5.930;2022-10-13T13:14:48;15.10;;;9.20;;
75356;SDS011;63946;51.986;5.930;2022-10-13T13:17:27;13.65;;;8.00;;
75356;SDS011;63946;51.986;5.930;2022-10-13T13:20:01;12.90;;;8.75;;
75356;SDS011;63946;51.986;5.930;2022-10-13T13:22:47;22.65;;;10.20;;
75356;SDS011;63946;51.986;5.930;2022-10-13T13:25:17;13.30;;;8.75;;
75356;SDS011;63946;51.986;5.930;2022-10-13T13:27:50;12.35;;;7.72;;
75356;SDS011;63946;51.986;5.930;2022-10-13T13:30:20;14.82;;;8.98;;
75356;SDS011;63946;51.986;5.930;2022-10-13T13:32:51;14.77;;;8.75;;
75356;SDS011;63946;51.986;5.930;2022-10-13T13:35:20;16.63;;;10.00;;
75356;SDS011;63946;51.986;5.930;2022-10-13T13:37:49;13.60;;;9.10;;
75356;SDS011;63946;51.986;5.930;2022-10-13T13:42:53;14.25;;;9.77;;
75356;SDS011;63946;51.986;5.930;2022-10-13T13:45:29;15.27;;;9.52;;
75356;SDS011;63946;51.986;5.930;2022-10-13T13:48:01;14.80;;;9.50;;
75356;SDS011;63946;51.986;5.930;2022-10-13T13:50:32;14.23;;;9.57;;
75356;SDS011;63946;51.986;5.930;2022-10-13T13:53:03;13.95;;;8.88;;
75356;SDS011;63946;51.986;5.930;2022-10-13T13:55:34;11.95;;;8.27;;
75356;SDS011;63946;51.986;5.930;2022-10-13T13:58:04;14.25;;;8.80;;
75356;SDS011;63946;51.986;5.930;2022-10-13T14:00:35;11.60;;;8.68;;
75356;SDS011;63946;51.986;5.930;2022-10-13T14:03:06;14.27;;;9.70;;
75356;SDS011;63946;51.986;5.930;2022-10-13T14:05:38;15.50;;;9.38;;
75356;SDS011;63946;51.986;5.930;2022-10-13T14:08:13;15.63;;;9.45;;
75356;SDS011;63946;51.986;5.930;2022-10-13T14:10:48;14.95;;;9.32;;
75356;SDS011;63946;51.986;5.930;2022-10-13T14:13:21;14.57;;;9.52;;
75356;SDS011;63946;51.986;5.930;2022-10-13T14:15:57;18.23;;;10.07;;
75356;SDS011;63946;51.986;5.930;2022-10-13T14:18:26;13.88;;;9.18;;
75356;SDS011;63946;51.986;5.930;2022-10-13T14:20:58;12.35;;;8.82;;
75356;SDS011;63946;51.986;5.930;2022-10-13T14:23:27;17.52;;;10.07;;
75356;SDS011;63946;51.986;5.930;2022-10-13T14:25:56;16.08;;;10.90;;
75356;SDS011;63946;51.986;5.930;2022-10-13T14:28:37;14.80;;;9.43;;
75356;SDS011;63946;51.986;5.930;2022-10-13T14:31:11;14.70;;;10.48;;
75356;SDS011;63946;51.986;5.930;2022-10-13T14:33:41;10.95;;;8.20;;
75356;SDS011;63946;51.986;5.930;2022-10-13T14:36:12;15.88;;;8.63;;
75356;SDS011;63946;51.986;5.930;2022-10-13T14:38:40;11.65;;;8.65;;
75356;SDS011;63946;51.986;5.930;2022-10-13T14:41:12;13.10;;;8.52;;
75356;SDS011;63946;51.986;5.930;2022-10-13T14:43:44;15.75;;;8.73;;
75356;SDS011;63946;51.986;5.930;2022-10-13T14:46:13;16.42;;;9.55;;
75356;SDS011;63946;51.986;5.930;2022-10-13T14:48:42;15.20;;;8.75;;
75356;SDS011;63946;51.986;5.930;2022-10-13T14:51:14;15.43;;;9.75;;
75356;SDS011;63946;51.986;5.930;2022-10-13T14:53:44;15.20;;;8.82;;
75356;SDS011;63946;51.986;5.930;2022-10-13T14:58:53;18.45;;;11.13;;
75356;SDS011;63946;51.986;5.930;2022-10-13T15:01:45;14.68;;;9.40;;
75356;SDS011;63946;51.986;5.930;2022-10-13T15:06:53;13.20;;;8.98;;
75356;SDS011;63946;51.986;5.930;2022-10-13T15:09:24;15.23;;;8.45;;
75356;SDS011;63946;51.986;5.930;2022-10-13T15:12:04;11.73;;;7.97;;
75356;SDS011;63946;51.986;5.930;2022-10-13T15:14:41;12.38;;;8.50;;
75356;SDS011;63946;51.986;5.930;2022-10-13T15:17:10;15.50;;;9.63;;
75356;SDS011;63946;51.986;5.930;2022-10-13T15:19:39;13.05;;;8.32;;
75356;SDS011;63946;51.986;5.930;2022-10-13T15:22:23;13.45;;;8.27;;
75356;SDS011;63946;51.986;5.930;2022-10-13T15:24:53;14.57;;;9.75;;
75356;SDS011;63946;51.986;5.930;2022-10-13T15:27:24;15.20;;;9.25;;
75356;SDS011;63946;51.986;5.930;2022-10-13T15:29:53;17.30;;;9.20;;
75356;SDS011;63946;51.986;5.930;2022-10-13T15:32:22;14.48;;;9.60;;
75356;SDS011;63946;51.986;5.930;2022-10-13T15:34:59;13.30;;;9.23;;
75356;SDS011;63946;51.986;5.930;2022-10-13T15:37:32;15.13;;;10.05;;
75356;SDS011;63946;51.986;5.930;2022-10-13T15:40:04;16.17;;;9.90;;
75356;SDS011;63946;51.986;5.930;2022-10-13T15:42:33;17.20;;;10.93;;
75356;SDS011;63946;51.986;5.930;2022-10-13T15:45:06;15.05;;;8.88;;
75356;SDS011;63946;51.986;5.930;2022-10-13T15:47:35;15.63;;;9.77;;
75356;SDS011;63946;51.986;5.930;2022-10-13T15:50:09;13.98;;;9.80;;
75356;SDS011;63946;51.986;5.930;2022-10-13T15:52:39;17.13;;;9.57;;
75356;SDS011;63946;51.986;5.930;2022-10-13T15:55:14;17.83;;;9.48;;
75356;SDS011;63946;51.986;5.930;2022-10-13T15:57:48;13.85;;;9.25;;
75356;SDS011;63946;51.986;5.930;2022-10-13T16:00:18;11.93;;;8.70;;
75356;SDS011;63946;51.986;5.930;2022-10-13T16:02:49;13.68;;;11.15;;
75356;SDS011;63946;51.986;5.930;2022-10-13T16:05:21;14.82;;;9.95;;
75356;SDS011;63946;51.986;5.930;2022-10-13T16:07:53;14.15;;;8.93;;
75356;SDS011;63946;51.986;5.930;2022-10-13T16:10:26;16.77;;;10.75;;
75356;SDS011;63946;51.986;5.930;2022-10-13T16:12:57;11.98;;;8.82;;
75356;SDS011;63946;51.986;5.930;2022-10-13T16:15:29;14.13;;;10.25;;
75356;SDS011;63946;51.986;5.930;2022-10-13T16:18:02;16.35;;;10.63;;
75356;SDS011;63946;51.986;5.930;2022-10-13T16:20:39;14.88;;;9.98;;
75356;SDS011;63946;51.986;5.930;2022-10-13T16:23:12;18.63;;;11.85;;
75356;SDS011;63946;51.986;5.930;2022-10-13T16:25:44;17.27;;;10.57;;
75356;SDS011;63946;51.986;5.930;2022-10-13T16:28:12;16.83;;;10.43;;
75356;SDS011;63946;51.986;5.930;2022-10-13T16:30:44;13.80;;;9.90;;
75356;SDS011;63946;51.986;5.930;2022-10-13T16:33:13;16.40;;;10.82;;
75356;SDS011;63946;51.986;5.930;2022-10-13T16:35:42;18.30;;;11.70;;
75356;SDS011;63946;51.986;5.930;2022-10-13T16:40:41;15.98;;;10.70;;
75356;SDS011;63946;51.986;5.930;2022-10-13T16:43:10;14.82;;;10.40;;
75356;SDS011;63946;51.986;5.930;2022-10-13T16:46:00;14.30;;;10.40;;
75356;SDS011;63946;51.986;5.930;2022-10-13T16:48:37;15.07;;;9.98;;
75356;SDS011;63946;51.986;5.930;2022-10-13T16:51:09;16.30;;;11.00;;
75356;SDS011;63946;51.986;5.930;2022-10-13T16:53:47;28.42;;;13.15;;
75356;SDS011;63946;51.986;5.930;2022-10-13T16:56:17;14.88;;;9.75;;
75356;SDS011;63946;51.986;5.930;2022-10-13T16:58:52;16.75;;;11.23;;
75356;SDS011;63946;51.986;5.930;2022-10-13T17:01:24;19.73;;;11.73;;
75356;SDS011;63946;51.986;5.930;2022-10-13T17:03:53;14.25;;;10.40;;
75356;SDS011;63946;51.986;5.930;2022-10-13T17:06:24;20.48;;;13.02;;
75356;SDS011;63946;51.986;5.930;2022-10-13T17:08:58;20.13;;;13.02;;
75356;SDS011;63946;51.986;5.930;2022-10-13T17:11:33;19.70;;;13.23;;
75356;SDS011;63946;51.986;5.930;2022-10-13T17:14:13;17.95;;;12.35;;
75356;SDS011;63946;51.986;5.930;2022-10-13T17:16:42;18.65;;;13.18;;
75356;SDS011;63946;51.986;5.930;2022-10-13T17:19:16;17.73;;;12.27;;
75356;SDS011;63946;51.986;5.930;2022-10-13T17:21:45;21.00;;;12.93;;
75356;SDS011;63946;51.986;5.930;2022-10-13T17:24:15;15.95;;;12.43;;
75356;SDS011;63946;51.986;5.930;2022-10-13T17:26:44;17.88;;;12.73;;
75356;SDS011;63946;51.986;5.930;2022-10-13T17:29:13;19.67;;;13.63;;
75356;SDS011;63946;51.986;5.930;2022-10-13T17:31:42;18.00;;;12.68;;
75356;SDS011;63946;51.986;5.930;2022-10-13T17:34:12;20.80;;;12.10;;
75356;SDS011;63946;51.986;5.930;2022-10-13T17:36:41;21.77;;;14.05;;
75356;SDS011;63946;51.986;5.930;2022-10-13T17:39:12;18.85;;;12.77;;
75356;SDS011;63946;51.986;5.930;2022-10-13T17:41:43;17.75;;;12.85;;
75356;SDS011;63946;51.986;5.930;2022-10-13T17:44:15;17.05;;;12.65;;
75356;SDS011;63946;51.986;5.930;2022-10-13T17:46:48;14.18;;;10.50;;
75356;SDS011;63946;51.986;5.930;2022-10-13T17:49:21;19.48;;;12.85;;
75356;SDS011;63946;51.986;5.930;2022-10-13T17:51:52;20.25;;;13.75;;
75356;SDS011;63946;51.986;5.930;2022-10-13T17:54:22;20.27;;;13.25;;
75356;SDS011;63946;51.986;5.930;2022-10-13T17:56:53;21.00;;;14.20;;
75356;SDS011;63946;51.986;5.930;2022-10-13T17:59:22;19.17;;;12.77;;
75356;SDS011;63946;51.986;5.930;2022-10-13T18:01:55;17.55;;;12.77;;
75356;SDS011;63946;51.986;5.930;2022-10-13T18:04:27;18.60;;;12.02;;
75356;SDS011;63946;51.986;5.930;2022-10-13T18:06:59;18.40;;;12.65;;
75356;SDS011;63946;51.986;5.930;2022-10-13T18:09:43;19.95;;;12.43;;
75356;SDS011;63946;51.986;5.930;2022-10-13T18:12:20;24.45;;;15.40;;
75356;SDS011;63946;51.986;5.930;2022-10-13T18:14:55;24.00;;;14.52;;
75356;SDS011;63946;51.986;5.930;2022-10-13T18:17:25;22.65;;;15.15;;
75356;SDS011;63946;51.986;5.930;2022-10-13T18:20:29;23.17;;;15.00;;
75356;SDS011;63946;51.986;5.930;2022-10-13T18:23:05;21.92;;;13.95;;
75356;SDS011;63946;51.986;5.930;2022-10-13T18:25:34;22.95;;;14.50;;
75356;SDS011;63946;51.986;5.930;2022-10-13T18:28:20;22.52;;;14.30;;
75356;SDS011;63946;51.986;5.930;2022-10-13T18:30:49;19.70;;;13.95;;
75356;SDS011;63946;51.986;5.930;2022-10-13T18:33:18;20.55;;;13.35;;
75356;SDS011;63946;51.986;5.930;2022-10-13T18:35:47;21.65;;;14.23;;
75356;SDS011;63946;51.986;5.930;2022-10-13T18:38:16;23.27;;;13.70;;
75356;SDS011;63946;51.986;5.930;2022-10-13T18:40:46;23.10;;;15.75;;
75356;SDS011;63946;51.986;5.930;2022-10-13T18:43:14;21.27;;;14.40;;
75356;SDS011;63946;51.986;5.930;2022-10-13T18:45:43;21.10;;;14.38;;
75356;SDS011;63946;51.986;5.930;2022-10-13T18:48:21;22.00;;;14.45;;
75356;SDS011;63946;51.986;5.930;2022-10-13T18:50:53;16.95;;;12.70;;
75356;SDS011;63946;51.986;5.930;2022-10-13T18:53:27;19.80;;;12.40;;
75356;SDS011;63946;51.986;5.930;2022-10-13T18:56:03;17.98;;;13.65;;
75356;SDS011;63946;51.986;5.930;2022-10-13T18:58:36;19.52;;;12.95;;
75356;SDS011;63946;51.986;5.930;2022-10-13T19:01:06;21.60;;;15.02;;
75356;SDS011;63946;51.986;5.930;2022-10-13T19:03:38;20.02;;;14.45;;
75356;SDS011;63946;51.986;5.930;2022-10-13T19:08:40;25.10;;;16.10;;
75356;SDS011;63946;51.986;5.930;2022-10-13T19:11:14;24.05;;;15.75;;
75356;SDS011;63946;51.986;5.930;2022-10-13T19:16:18;19.80;;;13.68;;
75356;SDS011;63946;51.986;5.930;2022-10-13T19:18:49;21.80;;;14.88;;
75356;SDS011;63946;51.986;5.930;2022-10-13T19:21:19;28.02;;;16.17;;
75356;SDS011;63946;51.986;5.930;2022-10-13T19:23:50;19.25;;;13.45;;
75356;SDS011;63946;51.986;5.930;2022-10-13T19:29:01;30.13;;;19.13;;
75356;SDS011;63946;51.986;5.930;2022-10-13T19:31:36;23.48;;;17.02;;
75356;SDS011;63946;51.986;5.930;2022-10-13T19:34:06;24.00;;;17.05;;
75356;SDS011;63946;51.986;5.930;2022-10-13T19:36:39;25.48;;;17.67;;
75356;SDS011;63946;51.986;5.930;2022-10-13T19:39:13;24.58;;;16.60;;
75356;SDS011;63946;51.986;5.930;2022-10-13T19:41:45;23.73;;;17.05;;
75356;SDS011;63946;51.986;5.930;2022-10-13T19:44:17;21.80;;;14.68;;
75356;SDS011;63946;51.986;5.930;2022-10-13T19:46:46;20.40;;;14.68;;
75356;SDS011;63946;51.986;5.930;2022-10-13T19:49:17;22.23;;;13.45;;
75356;SDS011;63946;51.986;5.930;2022-10-13T19:54:23;21.80;;;14.23;;
75356;SDS011;63946;51.986;5.930;2022-10-13T19:56:53;16.05;;;11.18;;
75356;SDS011;63946;51.986;5.930;2022-10-13T19:59:22;18.67;;;12.23;;
75356;SDS011;63946;51.986;5.930;2022-10-13T20:01:51;17.45;;;12.10;;
75356;SDS011;63946;51.986;5.930;2022-10-13T20:04:21;19.50;;;12.15;;
75356;SDS011;63946;51.986;5.930;2022-10-13T20:06:50;18.50;;;13.02;;
75356;SDS011;63946;51.986;5.930;2022-10-13T20:09:19;19.95;;;13.13;;
75356;SDS011;63946;51.986;5.930;2022-10-13T20:11:48;18.15;;;12.45;;
75356;SDS011;63946;51.986;5.930;2022-10-13T20:14:18;17.48;;;11.63;;
75356;SDS011;63946;51.986;5.930;2022-10-13T20:16:47;18.00;;;12.57;;
75356;SDS011;63946;51.986;5.930;2022-10-13T20:19:17;18.10;;;11.88;;
75356;SDS011;63946;51.986;5.930;2022-10-13T20:21:46;18.27;;;12.18;;
75356;SDS011;63946;51.986;5.930;2022-10-13T20:24:16;19.02;;;12.75;;
75356;SDS011;63946;51.986;5.930;2022-10-13T20:26:45;16.85;;;11.88;;
75356;SDS011;63946;51.986;5.930;2022-10-13T20:29:14;20.23;;;13.00;;
75356;SDS011;63946;51.986;5.930;2022-10-13T20:31:49;21.63;;;13.05;;
75356;SDS011;63946;51.986;5.930;2022-10-13T20:34:18;20.20;;;12.38;;
75356;SDS011;63946;51.986;5.930;2022-10-13T20:36:49;21.67;;;13.02;;
75356;SDS011;63946;51.986;5.930;2022-10-13T20:39:18;18.90;;;14.23;;
75356;SDS011;63946;51.986;5.930;2022-10-13T20:41:47;20.77;;;12.48;;
75356;SDS011;63946;51.986;5.930;2022-10-13T20:44:16;20.52;;;13.23;;
75356;SDS011;63946;51.986;5.930;2022-10-13T20:46:44;23.30;;;13.07;;
75356;SDS011;63946;51.986;5.930;2022-10-13T20:49:13;16.80;;;11.68;;
75356;SDS011;63946;51.986;5.930;2022-10-13T20:51:42;20.02;;;12.32;;
75356;SDS011;63946;51.986;5.930;2022-10-13T20:54:12;14.77;;;10.50;;
75356;SDS011;63946;51.986;5.930;2022-10-13T20:56:42;19.90;;;12.38;;
75356;SDS011;63946;51.986;5.930;2022-10-13T20:59:12;18.77;;;12.23;;
75356;SDS011;63946;51.986;5.930;2022-10-13T21:01:41;18.95;;;12.77;;
75356;SDS011;63946;51.986;5.930;2022-10-13T21:04:10;17.58;;;11.60;;
75356;SDS011;63946;51.986;5.930;2022-10-13T21:06:39;18.02;;;12.07;;
75356;SDS011;63946;51.986;5.930;2022-10-13T21:09:09;18.25;;;11.00;;
75356;SDS011;63946;51.986;5.930;2022-10-13T21:11:40;20.25;;;12.88;;
75356;SDS011;63946;51.986;5.930;2022-10-13T21:14:09;19.25;;;12.75;;
75356;SDS011;63946;51.986;5.930;2022-10-13T21:16:38;16.70;;;11.13;;
75356;SDS011;63946;51.986;5.930;2022-10-13T21:19:07;15.70;;;10.98;;
75356;SDS011;63946;51.986;5.930;2022-10-13T21:21:36;11.70;;;8.48;;
75356;SDS011;63946;51.986;5.930;2022-10-13T21:24:08;15.85;;;11.25;;
75356;SDS011;63946;51.986;5.930;2022-10-13T21:26:38;16.23;;;10.75;;
75356;SDS011;63946;51.986;5.930;2022-10-13T21:29:12;17.85;;;11.13;;
75356;SDS011;63946;51.986;5.930;2022-10-13T21:31:41;16.67;;;11.65;;
75356;SDS011;63946;51.986;5.930;2022-10-13T21:34:10;18.50;;;11.18;;
75356;SDS011;63946;51.986;5.930;2022-10-13T21:36:40;19.50;;;12.45;;
75356;SDS011;63946;51.986;5.930;2022-10-13T21:39:11;18.83;;;11.55;;
75356;SDS011;63946;51.986;5.930;2022-10-13T21:41:41;18.58;;;11.63;;
75356;SDS011;63946;51.986;5.930;2022-10-13T21:44:11;18.60;;;12.73;;
75356;SDS011;63946;51.986;5.930;2022-10-13T21:46:40;17.05;;;11.20;;
75356;SDS011;63946;51.986;5.930;2022-10-13T21:49:09;19.33;;;11.50;;
75356;SDS011;63946;51.986;5.930;2022-10-13T21:51:38;19.20;;;12.82;;
75356;SDS011;63946;51.986;5.930;2022-10-13T21:54:08;18.58;;;12.25;;
